メインページ
METAR-TAF:

METAR-TAF

空港 :

ベイルート, レバノン

緯度: 33-49N, 経度: 035-29E, 海抜: 29m

現時点の気象観測

当レポートは58分前の20:00(UTC)に作成
の風 4kt
気温 27°C
湿度 70%
気圧 1009 hPa
視程10km以上
高度2800ftの雲は散在している

METAR: OLBA 212000Z 19004KT 9999 SCT028 27/21 Q1009 NOSIG

時間: 23:58 (20:58 UTC)

予報

当レポートは10時間58分前の10:00(UTC)に作成
予報は21日の 12時(UTC)から 22日の 18時(UTC)まで有効
南西の風 10kt、最大20ktの突風を伴う
視程: 8000m
高度2600ftの雲は散在している
21日の 20時(UTC)から 21日の 23時(UTC)まで徐々に
南/南東の風 6kt
高度3000ftの雲はほとんどない
22日の 07時(UTC)から 22日の 09時(UTC)まで徐々に
西/南西の風 20kt
視程: 8000m
高度2600ftの雲は散在している

TAF: OLBA 211000Z 2112/2218 23010G20KT 8000 SCT026 BECMG 2120/2123 16006KT FEW030 BECMG 2207/2209 24020KT 8000 SCT026

4,000以上の空港の気象観測と天気予報(METAR報とTAF報)

利用可能な観測所は地図上に黄色い丸と赤い丸で示す。

丸の上にカーソルを重ねると観測所名を参照できる。

次にクリックすると気象観測と天気予報を参照できる。

マップの切り替え:黒色「×」印の緑ボタンをクリックして拡大、「-」印の緑ボタンをクリックして縮小、緑色の三角印をクリックして隣りの地図に切り替え


METAR-TAF: